createdAt,value
2018-12-27T00:00:57.746Z,17.80
2018-12-27T00:01:57.703Z,17.30
2018-12-27T00:02:57.647Z,17.80
2018-12-27T00:03:57.601Z,16.80
2018-12-27T00:04:57.581Z,17.40
2018-12-27T00:05:57.510Z,17.00
2018-12-27T00:06:57.470Z,17.20
2018-12-27T00:07:57.427Z,16.90
2018-12-27T00:08:57.383Z,17.00
2018-12-27T00:09:57.360Z,17.70
2018-12-27T00:10:57.280Z,17.50
2018-12-27T00:11:57.232Z,16.60
2018-12-27T00:12:57.195Z,16.90
2018-12-27T00:13:57.148Z,17.40
2018-12-27T00:14:57.098Z,16.30
2018-12-27T00:15:57.075Z,16.50
2018-12-27T00:16:57.006Z,16.80
2018-12-27T00:17:56.955Z,16.60
2018-12-27T00:18:56.926Z,16.80
2018-12-27T00:19:56.869Z,16.60
2018-12-27T00:20:56.849Z,16.30
2018-12-27T00:21:56.785Z,16.20
2018-12-27T00:22:56.730Z,16.30
2018-12-27T00:23:56.681Z,16.10
2018-12-27T00:24:56.636Z,16.20
2018-12-27T00:25:56.612Z,15.80
2018-12-27T00:26:56.551Z,16.80
2018-12-27T00:27:56.511Z,16.40
2018-12-27T00:28:56.451Z,15.90
2018-12-27T00:29:56.407Z,17.20
2018-12-27T00:30:56.398Z,16.50
2018-12-27T00:31:56.322Z,16.50
2018-12-27T00:33:02.924Z,16.80
2018-12-27T00:33:56.229Z,16.60
2018-12-27T00:34:56.200Z,16.10
2018-12-27T00:35:56.156Z,17.10
2018-12-27T00:36:56.088Z,17.20
2018-12-27T00:37:56.039Z,17.40
2018-12-27T00:38:56.004Z,16.60
2018-12-27T00:39:55.953Z,17.50
2018-12-27T00:40:55.909Z,16.70
2018-12-27T00:41:55.892Z,17.40
2018-12-27T00:42:55.812Z,17.30
2018-12-27T00:43:55.764Z,16.80
2018-12-27T00:44:55.724Z,17.20
2018-12-27T00:45:55.682Z,16.90
2018-12-27T00:46:55.627Z,17.60
2018-12-27T00:47:55.601Z,17.10
2018-12-27T00:48:55.535Z,17.20
2018-12-27T00:49:55.485Z,16.80
2018-12-27T00:50:55.450Z,17.00
2018-12-27T00:51:55.431Z,18.30
2018-12-27T00:52:55.360Z,17.70
2018-12-27T00:53:55.310Z,17.80
2018-12-27T00:54:55.257Z,18.60
2018-12-27T00:55:55.212Z,17.40
2018-12-27T00:56:55.165Z,16.40
2018-12-27T00:57:55.146Z,16.80
2018-12-27T00:58:55.108Z,16.20
2018-12-27T00:59:55.037Z,15.80
2018-12-27T01:00:54.980Z,15.90
2018-12-27T01:01:54.937Z,16.50
2018-12-27T01:02:54.894Z,16.90
2018-12-27T01:03:54.847Z,16.00
2018-12-27T01:04:54.830Z,14.80
2018-12-27T01:05:54.763Z,15.60
2018-12-27T01:06:54.706Z,15.20
2018-12-27T01:07:54.662Z,13.70
2018-12-27T01:08:54.636Z,13.60
2018-12-27T01:09:54.567Z,13.60
2018-12-27T01:10:54.531Z,14.40
2018-12-27T01:11:54.480Z,13.10
2018-12-27T01:12:54.439Z,12.90
2018-12-27T01:13:54.413Z,13.70
2018-12-27T01:14:54.337Z,13.40
2018-12-27T01:15:54.290Z,13.30
2018-12-27T01:16:54.249Z,13.50
2018-12-27T01:17:54.203Z,12.60
2018-12-27T01:18:54.176Z,13.30
2018-12-27T01:19:54.106Z,13.80
2018-12-27T01:20:54.059Z,13.30
2018-12-27T01:21:54.015Z,12.60
2018-12-27T01:22:53.976Z,13.50
2018-12-27T01:23:53.956Z,12.40
2018-12-27T01:24:53.878Z,12.70
2018-12-27T01:25:53.830Z,13.10
2018-12-27T01:26:53.792Z,13.30
2018-12-27T01:27:53.745Z,12.80
2018-12-27T01:28:53.698Z,13.00
2018-12-27T01:29:53.675Z,12.80
2018-12-27T01:30:53.602Z,12.90
2018-12-27T01:31:53.553Z,12.50
2018-12-27T01:32:53.518Z,12.70
2018-12-27T01:33:53.491Z,12.60
2018-12-27T01:34:53.438Z,12.40
2018-12-27T01:35:53.366Z,12.70
2018-12-27T01:36:53.320Z,12.70
2018-12-27T01:37:53.277Z,12.40
2018-12-27T01:38:53.258Z,12.30
2018-12-27T01:39:53.194Z,12.50
2018-12-27T01:40:53.142Z,12.40
2018-12-27T01:41:53.099Z,13.30
2018-12-27T01:42:53.047Z,12.60
2018-12-27T01:43:53.024Z,12.60
2018-12-27T01:44:52.953Z,12.10
2018-12-27T01:45:52.908Z,12.30
2018-12-27T01:46:52.868Z,11.90
2018-12-27T01:47:52.822Z,11.90
2018-12-27T01:48:52.794Z,12.10
2018-12-27T01:49:52.724Z,12.30
2018-12-27T01:50:52.686Z,12.00
2018-12-27T01:51:52.638Z,12.50
2018-12-27T01:52:52.593Z,11.80
2018-12-27T01:53:52.574Z,12.30
2018-12-27T01:54:52.517Z,12.40
2018-12-27T01:55:52.451Z,12.20
2018-12-27T01:56:52.402Z,12.20
2018-12-27T01:57:52.362Z,11.90
2018-12-27T01:58:52.319Z,12.10
2018-12-27T01:59:52.292Z,12.40
2018-12-27T02:00:52.227Z,12.20
2018-12-27T02:01:52.180Z,12.10
2018-12-27T02:02:52.126Z,12.50
2018-12-27T02:03:52.081Z,12.20
2018-12-27T02:04:52.064Z,12.90
2018-12-27T02:05:51.997Z,12.60
2018-12-27T02:06:51.945Z,12.30
2018-12-27T02:07:51.919Z,12.70
2018-12-27T02:08:51.850Z,12.80
2018-12-27T02:09:51.801Z,12.20
2018-12-27T02:10:51.765Z,12.30
2018-12-27T02:11:51.748Z,12.60
2018-12-27T02:12:51.676Z,12.70
2018-12-27T02:13:51.628Z,13.00
2018-12-27T02:14:51.577Z,11.90
2018-12-27T02:15:51.558Z,13.10
2018-12-27T02:16:51.484Z,12.70
2018-12-27T02:17:51.463Z,12.70
2018-12-27T02:18:51.402Z,13.00
2018-12-27T02:19:51.351Z,12.90
2018-12-27T02:20:59.253Z,13.00
2018-12-27T02:21:51.262Z,12.90
2018-12-27T02:22:51.217Z,13.50
2018-12-27T02:24:00.226Z,12.60
2018-12-27T02:25:00.282Z,12.60
2018-12-27T02:26:00.300Z,13.30
2018-12-27T02:26:59.849Z,13.20
2018-12-27T02:28:00.360Z,12.90
2018-12-27T02:29:00.408Z,13.10
2018-12-27T02:29:59.932Z,13.10
2018-12-27T02:30:59.966Z,13.40
2018-12-27T02:32:01.011Z,13.30
2018-12-27T02:32:59.549Z,13.00
2018-12-27T02:34:00.067Z,12.50
2018-12-27T02:35:00.157Z,11.90
2018-12-27T02:35:59.652Z,12.30
2018-12-27T02:36:59.188Z,12.60
2018-12-27T02:37:59.709Z,12.20
2018-12-27T02:38:58.244Z,11.60
2018-12-27T02:39:58.283Z,11.00
2018-12-27T02:40:59.799Z,10.90
2018-12-27T02:41:57.364Z,11.10
2018-12-27T02:42:59.378Z,11.60
2018-12-27T02:43:50.227Z,11.30
2018-12-27T02:44:50.187Z,10.80
2018-12-27T02:45:50.140Z,10.80
2018-12-27T02:46:50.116Z,10.50
2018-12-27T02:47:50.066Z,10.50
2018-12-27T02:48:49.987Z,10.70
2018-12-27T02:49:49.941Z,11.50
2018-12-27T02:50:49.895Z,10.60
2018-12-27T02:51:49.846Z,10.30
2018-12-27T02:52:49.832Z,10.00
2018-12-27T02:53:49.764Z,10.60
2018-12-27T02:54:49.720Z,10.30
2018-12-27T02:55:49.665Z,10.60
2018-12-27T02:56:49.650Z,9.80
2018-12-27T02:57:49.567Z,10.20
2018-12-27T02:58:58.907Z,10.10
2018-12-27T02:59:58.946Z,10.50
2018-12-27T03:00:49.433Z,10.20
2018-12-27T03:01:49.392Z,10.10
2018-12-27T03:02:49.370Z,10.60
2018-12-27T03:03:49.329Z,10.80
2018-12-27T03:04:49.244Z,10.10
2018-12-27T03:05:49.197Z,10.20
2018-12-27T03:06:49.171Z,10.40
2018-12-27T03:07:49.100Z,10.20
2018-12-27T03:08:49.083Z,9.60
2018-12-27T03:09:49.017Z,9.90
2018-12-27T03:10:48.966Z,10.00
2018-12-27T03:11:48.919Z,9.90
2018-12-27T03:12:48.901Z,10.60
2018-12-27T03:13:48.833Z,10.10
2018-12-27T03:14:48.791Z,9.50
2018-12-27T03:15:48.738Z,9.20
2018-12-27T03:16:48.682Z,9.90
2018-12-27T03:17:48.673Z,9.70
2018-12-27T03:18:48.598Z,10.70
2018-12-27T03:19:48.551Z,11.10
2018-12-27T03:20:48.504Z,10.90
2018-12-27T03:21:48.464Z,10.90
2018-12-27T03:22:48.441Z,11.00
2018-12-27T03:23:48.370Z,11.00
2018-12-27T03:24:48.320Z,10.50
2018-12-27T03:25:48.294Z,10.30
2018-12-27T03:26:48.234Z,11.00
2018-12-27T03:27:48.187Z,11.20
2018-12-27T03:28:48.131Z,11.00
2018-12-27T03:29:48.112Z,10.80
2018-12-27T03:30:48.101Z,10.80
2018-12-27T03:31:47.995Z,10.70
2018-12-27T03:32:47.954Z,10.30
2018-12-27T03:33:52.606Z,9.70
2018-12-27T03:34:47.861Z,10.70
2018-12-27T03:35:47.842Z,11.20
2018-12-27T03:36:47.762Z,11.00
2018-12-27T03:37:47.717Z,11.80
2018-12-27T03:38:47.671Z,11.50
2018-12-27T03:39:47.623Z,12.20
2018-12-27T03:40:47.609Z,11.10
2018-12-27T03:41:47.542Z,11.10
2018-12-27T03:42:47.486Z,11.40
2018-12-27T03:43:47.434Z,11.10
2018-12-27T03:44:47.398Z,10.70
2018-12-27T03:45:47.375Z,11.50
2018-12-27T03:46:47.307Z,11.70
2018-12-27T03:47:47.258Z,11.80
2018-12-27T03:48:47.205Z,12.10
2018-12-27T03:49:47.161Z,12.40
2018-12-27T03:50:47.134Z,11.60
2018-12-27T03:51:47.066Z,12.50
2018-12-27T03:52:47.032Z,12.40
2018-12-27T03:53:46.979Z,12.10
2018-12-27T03:54:46.935Z,12.90
2018-12-27T03:55:46.907Z,13.00
2018-12-27T03:56:46.829Z,12.20
2018-12-27T03:57:46.791Z,10.60
2018-12-27T03:58:46.746Z,11.50
2018-12-27T03:59:46.698Z,11.90
2018-12-27T04:00:46.676Z,11.90
2018-12-27T04:01:46.600Z,12.30
2018-12-27T04:02:46.554Z,12.10
2018-12-27T04:03:46.508Z,12.30
2018-12-27T04:04:46.467Z,12.30
2018-12-27T04:05:46.420Z,12.00
2018-12-27T04:06:46.400Z,12.10
2018-12-27T04:07:46.326Z,13.00
2018-12-27T04:08:46.285Z,12.50
2018-12-27T04:09:46.248Z,12.10
2018-12-27T04:10:46.178Z,12.40
2018-12-27T04:11:46.137Z,12.80
2018-12-27T04:12:46.122Z,12.00
2018-12-27T04:13:46.045Z,11.80
2018-12-27T04:14:45.990Z,12.10
2018-12-27T04:15:45.944Z,12.50
2018-12-27T04:16:45.904Z,12.50
2018-12-27T04:17:45.856Z,12.90
2018-12-27T04:18:45.840Z,12.80
2018-12-27T04:19:45.762Z,12.60
2018-12-27T04:20:45.708Z,12.60
2018-12-27T04:21:45.661Z,12.40
2018-12-27T04:22:45.614Z,12.50
2018-12-27T04:23:45.570Z,12.70
2018-12-27T04:24:45.552Z,12.70
2018-12-27T04:25:45.485Z,12.40
2018-12-27T04:26:45.436Z,12.50
2018-12-27T04:27:45.390Z,12.90
2018-12-27T04:28:45.333Z,13.00
2018-12-27T04:29:45.305Z,12.10
2018-12-27T04:30:45.246Z,12.40
2018-12-27T04:31:45.196Z,12.50
2018-12-27T04:32:45.139Z,12.80
2018-12-27T04:33:45.099Z,12.40
2018-12-27T04:34:45.076Z,12.30
2018-12-27T04:35:45.002Z,13.10
2018-12-27T04:36:44.986Z,12.50
2018-12-27T04:37:44.916Z,12.60
2018-12-27T04:38:44.867Z,12.10
2018-12-27T04:39:44.843Z,12.30
2018-12-27T04:40:44.765Z,12.20
2018-12-27T04:41:44.748Z,12.80
2018-12-27T04:42:44.676Z,12.60
2018-12-27T04:43:44.625Z,12.80
2018-12-27T04:44:44.586Z,12.50
2018-12-27T04:45:44.535Z,13.40
2018-12-27T04:46:44.506Z,13.10
2018-12-27T04:47:44.463Z,13.50
2018-12-27T04:48:44.400Z,13.00
2018-12-27T04:49:44.357Z,13.10
2018-12-27T04:50:44.309Z,13.40
2018-12-27T04:51:44.353Z,13.10
2018-12-27T04:52:44.200Z,13.10
2018-12-27T04:55:16.894Z,13.50
2018-12-27T04:56:16.087Z,12.70
2018-12-27T04:57:16.046Z,13.40
2018-12-27T04:58:16.009Z,12.30
2018-12-27T04:59:15.978Z,13.30
2018-12-27T05:00:15.918Z,13.10
2018-12-27T05:01:15.858Z,14.70
2018-12-27T05:02:15.799Z,13.00
2018-12-27T05:03:15.754Z,13.90
2018-12-27T05:04:18.280Z,13.10
2018-12-27T05:05:15.669Z,13.10
2018-12-27T05:06:15.619Z,13.40
2018-12-27T05:07:15.603Z,13.00
2018-12-27T05:08:15.526Z,12.80
2018-12-27T05:09:16.183Z,12.80
2018-12-27T05:10:15.409Z,12.90
2018-12-27T05:11:15.374Z,13.40
2018-12-27T05:12:15.355Z,13.30
2018-12-27T05:13:15.297Z,12.30
2018-12-27T05:14:15.256Z,13.00
2018-12-27T05:15:15.177Z,13.40
2018-12-27T05:16:15.128Z,13.30
2018-12-27T05:17:15.138Z,12.90
2018-12-27T05:18:15.050Z,12.90
2018-12-27T05:19:14.989Z,13.30
2018-12-27T05:20:14.965Z,12.80
2018-12-27T05:21:14.909Z,13.90
2018-12-27T05:22:14.864Z,13.30
2018-12-27T05:23:14.824Z,13.60
2018-12-27T05:24:14.764Z,13.90
2018-12-27T05:25:14.731Z,13.90
2018-12-27T05:26:14.686Z,13.90
2018-12-27T05:27:14.621Z,12.90
2018-12-27T05:28:14.560Z,13.20
2018-12-27T05:29:24.416Z,13.20
2018-12-27T05:30:14.521Z,13.30
2018-12-27T05:31:14.423Z,13.50
2018-12-27T05:32:14.371Z,13.00
2018-12-27T05:33:14.363Z,13.20
2018-12-27T05:34:14.273Z,13.40
2018-12-27T05:35:14.237Z,12.90
2018-12-27T05:36:14.198Z,13.20
2018-12-27T05:37:14.161Z,13.30
2018-12-27T05:38:14.814Z,13.70
2018-12-27T05:39:14.068Z,13.20
2018-12-27T05:40:14.026Z,12.70
2018-12-27T05:41:13.944Z,13.10
2018-12-27T05:42:13.902Z,13.30
2018-12-27T05:43:13.850Z,12.80
2018-12-27T05:44:13.816Z,12.60
2018-12-27T05:45:13.748Z,13.20
2018-12-27T05:46:13.735Z,13.20
2018-12-27T05:47:13.663Z,12.80
2018-12-27T05:48:13.633Z,13.10
2018-12-27T05:49:13.570Z,12.60
2018-12-27T05:50:13.554Z,12.90
2018-12-27T05:51:13.500Z,12.90
2018-12-27T05:52:13.423Z,12.30
2018-12-27T05:53:13.381Z,13.10
2018-12-27T05:54:13.345Z,13.40
2018-12-27T05:55:13.284Z,12.50
2018-12-27T05:56:13.260Z,13.40
2018-12-27T05:57:13.215Z,12.80
2018-12-27T05:58:13.155Z,13.00
2018-12-27T05:59:13.077Z,14.50
2018-12-27T06:00:13.058Z,14.70
2018-12-27T06:01:13.007Z,13.50
2018-12-27T06:02:12.991Z,13.60
2018-12-27T06:03:12.897Z,13.60
2018-12-27T06:04:12.853Z,14.20
2018-12-27T06:05:12.806Z,13.60
2018-12-27T06:06:12.776Z,13.40
2018-12-27T06:07:12.739Z,14.20
2018-12-27T06:08:12.662Z,14.20
2018-12-27T06:09:12.624Z,13.60
2018-12-27T06:10:12.566Z,12.70
2018-12-27T06:11:12.533Z,13.40
2018-12-27T06:12:12.462Z,13.70
2018-12-27T06:13:12.450Z,13.10
2018-12-27T06:14:12.376Z,13.50
2018-12-27T06:15:12.346Z,13.50
2018-12-27T06:16:12.295Z,13.10
2018-12-27T06:17:12.325Z,12.80
2018-12-27T06:18:12.192Z,13.50
2018-12-27T06:19:12.170Z,13.30
2018-12-27T06:20:12.081Z,12.80
2018-12-27T06:21:12.041Z,13.20
2018-12-27T06:22:11.995Z,12.70
2018-12-27T06:23:11.958Z,14.40
2018-12-27T06:24:11.939Z,13.30
2018-12-27T06:25:11.858Z,14.30
2018-12-27T06:26:11.811Z,13.80
2018-12-27T06:27:11.757Z,14.30
2018-12-27T06:28:11.725Z,13.80
2018-12-27T06:29:11.663Z,14.40
2018-12-27T06:30:11.635Z,14.00
2018-12-27T06:31:11.558Z,14.10
2018-12-27T06:32:11.541Z,14.90
2018-12-27T06:33:11.464Z,15.80
2018-12-27T06:34:11.425Z,14.70
2018-12-27T06:35:11.398Z,14.20
2018-12-27T06:36:11.364Z,14.40
2018-12-27T06:37:11.269Z,14.70
2018-12-27T06:38:11.234Z,14.10
2018-12-27T06:39:11.201Z,13.50
2018-12-27T06:40:11.156Z,13.70
2018-12-27T06:41:11.095Z,13.70
2018-12-27T06:42:11.047Z,13.30
2018-12-27T06:43:11.012Z,13.80
2018-12-27T06:44:10.958Z,13.90
2018-12-27T06:45:10.912Z,14.90
2018-12-27T06:46:10.845Z,14.10
2018-12-27T06:47:10.831Z,14.30
2018-12-27T06:48:10.750Z,14.40
2018-12-27T06:49:10.708Z,15.10
2018-12-27T06:50:10.685Z,15.60
2018-12-27T06:51:10.614Z,15.30
2018-12-27T06:52:10.577Z,15.90
2018-12-27T06:53:10.514Z,15.70
2018-12-27T06:54:10.465Z,15.80
2018-12-27T06:55:10.440Z,15.40
2018-12-27T06:56:10.374Z,15.70
2018-12-27T06:57:10.315Z,15.80
2018-12-27T06:58:10.302Z,15.50
2018-12-27T06:59:10.219Z,15.50
2018-12-27T07:00:10.184Z,15.70
2018-12-27T07:01:10.135Z,15.00
2018-12-27T07:02:10.079Z,15.80
2018-12-27T07:03:10.048Z,15.70
2018-12-27T07:04:10.028Z,14.40
2018-12-27T07:05:09.944Z,15.00
2018-12-27T07:06:09.896Z,15.70
2018-12-27T07:07:09.854Z,14.50
2018-12-27T07:08:09.820Z,14.90
2018-12-27T07:09:09.782Z,14.60
2018-12-27T07:10:09.681Z,15.80
2018-12-27T07:11:09.650Z,15.80
2018-12-27T07:12:09.626Z,14.90
2018-12-27T07:13:09.561Z,15.90
2018-12-27T07:14:09.545Z,15.60
2018-12-27T07:15:09.476Z,14.00
2018-12-27T07:16:09.409Z,14.70
2018-12-27T07:17:09.364Z,14.00
2018-12-27T07:18:09.315Z,14.80
2018-12-27T07:19:09.265Z,14.50
2018-12-27T07:20:09.242Z,15.00
2018-12-27T07:21:09.165Z,14.40
2018-12-27T07:22:09.115Z,14.20
2018-12-27T07:23:09.079Z,13.90
2018-12-27T07:24:09.031Z,14.20
2018-12-27T07:25:08.989Z,14.50
2018-12-27T07:26:08.947Z,15.40
2018-12-27T07:27:08.893Z,15.00
2018-12-27T07:28:08.836Z,14.20
2018-12-27T07:29:08.776Z,14.60
2018-12-27T07:30:08.729Z,14.50
2018-12-27T07:31:08.710Z,14.30
2018-12-27T07:32:08.643Z,14.40
2018-12-27T07:33:08.602Z,14.20
2018-12-27T07:34:08.546Z,13.70
2018-12-27T07:35:08.515Z,13.90
2018-12-27T07:36:08.459Z,13.40
2018-12-27T07:37:08.406Z,14.20
2018-12-27T07:38:08.377Z,13.70
2018-12-27T07:39:08.324Z,12.80
2018-12-27T07:40:08.260Z,13.80
2018-12-27T07:41:19.209Z,13.60
2018-12-27T07:42:17.964Z,13.80
2018-12-27T07:43:08.136Z,13.30
2018-12-27T07:44:08.061Z,13.50
2018-12-27T07:45:08.028Z,13.40
2018-12-27T07:46:11.006Z,13.50
2018-12-27T07:47:07.941Z,13.30
2018-12-27T07:48:07.903Z,13.30
2018-12-27T07:49:08.095Z,13.90
2018-12-27T07:50:07.783Z,14.00
2018-12-27T07:51:07.728Z,13.70
2018-12-27T07:52:07.695Z,13.70
2018-12-27T07:53:07.654Z,13.70
2018-12-27T07:54:07.591Z,13.30
2018-12-27T07:55:07.535Z,12.10
2018-12-27T07:56:07.490Z,13.20
2018-12-27T07:57:07.548Z,13.30
2018-12-27T07:58:07.434Z,13.00
2018-12-27T07:59:07.345Z,13.10
2018-12-27T08:00:07.313Z,12.80
2018-12-27T08:01:16.523Z,11.90
2018-12-27T08:02:07.310Z,12.10
2018-12-27T08:03:16.967Z,11.50
2018-12-27T08:04:08.029Z,12.30
2018-12-27T08:05:16.905Z,11.50
2018-12-27T08:06:07.009Z,11.50
2018-12-27T08:08:53.371Z,11.80
2018-12-27T08:09:55.575Z,12.30
2018-12-27T08:10:55.807Z,11.50
2018-12-27T08:12:01.870Z,11.60
2018-12-27T08:12:55.469Z,12.20
2018-12-27T08:13:45.498Z,11.70
2018-12-27T08:14:45.502Z,12.00
2018-12-27T08:15:45.955Z,11.90
2018-12-27T08:16:45.337Z,11.50
2018-12-27T08:17:45.290Z,11.50
2018-12-27T08:18:45.270Z,11.90
2018-12-27T08:19:45.234Z,11.50
2018-12-27T08:20:45.143Z,11.00
2018-12-27T08:21:45.120Z,11.50
2018-12-27T08:22:45.102Z,11.30
2018-12-27T08:23:45.004Z,11.20
2018-12-27T08:24:44.995Z,11.50
2018-12-27T08:25:44.950Z,11.50
2018-12-27T08:26:44.874Z,11.30
2018-12-27T08:27:44.826Z,10.70
2018-12-27T08:28:44.783Z,10.70
2018-12-27T08:29:44.867Z,10.20
2018-12-27T08:30:44.678Z,10.90
2018-12-27T08:31:44.638Z,10.00
2018-12-27T08:32:44.584Z,10.60
2018-12-27T08:33:44.536Z,10.00
2018-12-27T08:34:44.489Z,10.70
2018-12-27T08:35:44.527Z,10.00
2018-12-27T08:36:44.390Z,9.70
2018-12-27T08:37:44.356Z,9.50
2018-12-27T08:38:44.299Z,9.10
2018-12-27T08:39:44.246Z,8.90
2018-12-27T08:40:44.203Z,9.40
2018-12-27T08:41:44.241Z,9.00
2018-12-27T08:42:44.137Z,8.70
2018-12-27T08:43:44.211Z,9.10
2018-12-27T08:44:44.098Z,8.60
2018-12-27T08:45:44.041Z,8.90
2018-12-27T08:46:43.930Z,9.70
2018-12-27T08:47:44.479Z,9.20
2018-12-27T08:48:43.860Z,9.70
2018-12-27T08:49:43.782Z,9.70
2018-12-27T08:50:43.807Z,9.30
2018-12-27T08:51:43.857Z,9.60
2018-12-27T08:52:43.706Z,9.90
2018-12-27T08:53:43.660Z,9.70
2018-12-27T08:54:43.689Z,10.20
2018-12-27T08:55:43.547Z,10.60
2018-12-27T08:56:43.514Z,10.70
2018-12-27T08:57:43.418Z,10.80
2018-12-27T08:58:43.376Z,10.60
2018-12-27T08:59:43.369Z,10.60
2018-12-27T09:00:43.321Z,11.20
2018-12-27T09:01:43.239Z,11.10
2018-12-27T09:02:43.196Z,11.70
2018-12-27T09:03:43.152Z,11.30
2018-12-27T09:04:43.104Z,12.10
2018-12-27T09:05:43.052Z,12.90
2018-12-27T09:06:43.088Z,12.00
2018-12-27T09:07:43.027Z,11.50
2018-12-27T09:08:42.928Z,12.30
2018-12-27T09:09:42.898Z,12.40
2018-12-27T09:10:42.936Z,12.00
2018-12-27T09:11:42.909Z,12.10
2018-12-27T09:12:42.885Z,12.00
2018-12-27T09:13:42.685Z,11.60
2018-12-27T09:14:42.733Z,11.80
2018-12-27T09:15:42.598Z,12.40
2018-12-27T09:16:42.582Z,10.90
2018-12-27T09:17:42.545Z,11.40
2018-12-27T09:18:42.473Z,11.30
2018-12-27T09:19:42.456Z,11.60
2018-12-27T09:20:42.361Z,11.20
2018-12-27T09:21:42.341Z,11.00
2018-12-27T09:22:42.302Z,10.60
2018-12-27T09:23:42.299Z,10.40
2018-12-27T09:24:42.221Z,10.60
2018-12-27T09:25:42.263Z,10.50
2018-12-27T09:26:42.098Z,9.90
2018-12-27T09:27:42.099Z,9.70
2018-12-27T09:28:42.047Z,10.40
2018-12-27T09:29:42.011Z,10.10
2018-12-27T09:30:41.948Z,10.00
2018-12-27T09:31:42.044Z,9.60
2018-12-27T09:32:41.882Z,8.90
2018-12-27T09:33:52.063Z,9.60
2018-12-27T09:36:28.979Z,8.90
2018-12-27T09:37:21.625Z,9.20
2018-12-27T09:38:21.371Z,9.30
2018-12-27T09:39:20.621Z,9.50
2018-12-27T09:40:20.552Z,8.40
2018-12-27T09:41:21.562Z,9.60
2018-12-27T09:42:21.067Z,9.40
2018-12-27T09:43:21.171Z,9.00
2018-12-27T09:44:20.353Z,8.50
2018-12-27T09:45:20.257Z,7.90
2018-12-27T09:46:20.239Z,8.40
2018-12-27T09:47:20.167Z,9.30
2018-12-27T09:48:20.171Z,9.10
2018-12-27T09:49:20.173Z,9.40
2018-12-27T09:50:20.064Z,8.80
2018-12-27T09:51:20.039Z,9.10
2018-12-27T09:52:20.327Z,9.50
2018-12-27T09:56:33.099Z,8.50
2018-12-27T09:57:32.163Z,9.00
2018-12-27T09:58:32.118Z,8.90
2018-12-27T09:59:32.102Z,8.10
2018-12-27T10:00:32.032Z,8.00
2018-12-27T10:01:31.987Z,8.10
2018-12-27T10:02:31.992Z,8.10
2018-12-27T10:03:31.919Z,8.20
2018-12-27T10:04:32.279Z,7.80
2018-12-27T10:05:33.979Z,7.50
2018-12-27T10:06:32.091Z,7.70
2018-12-27T10:07:31.898Z,8.00
2018-12-27T10:08:31.733Z,7.80
2018-12-27T10:09:31.722Z,7.30
2018-12-27T10:10:31.644Z,7.60
2018-12-27T10:11:31.577Z,8.00
2018-12-27T10:12:31.571Z,8.50
2018-12-27T10:13:31.495Z,7.80
2018-12-27T10:14:31.448Z,8.00
2018-12-27T10:15:31.435Z,7.90
2018-12-27T10:16:31.364Z,8.40
2018-12-27T10:17:31.344Z,8.30
2018-12-27T10:18:31.271Z,7.90
2018-12-27T10:19:31.256Z,8.60
2018-12-27T10:20:31.214Z,8.30
2018-12-27T10:21:31.157Z,8.40
2018-12-27T10:22:31.154Z,8.10
2018-12-27T10:23:31.098Z,8.50
2018-12-27T10:24:31.047Z,7.80
2018-12-27T10:25:31.020Z,8.10
2018-12-27T10:26:30.980Z,7.90
2018-12-27T10:27:30.909Z,8.20
2018-12-27T10:28:30.861Z,8.40
2018-12-27T10:29:30.858Z,7.80
2018-12-27T10:30:30.762Z,8.00
2018-12-27T10:31:30.747Z,7.80
2018-12-27T10:32:30.711Z,7.70
2018-12-27T10:33:30.635Z,8.00
2018-12-27T10:34:30.601Z,8.00
2018-12-27T10:35:30.574Z,7.10
2018-12-27T10:36:30.541Z,7.30
2018-12-27T10:37:30.509Z,7.10
2018-12-27T10:38:30.454Z,7.10
2018-12-27T10:39:30.434Z,7.80
2018-12-27T10:40:30.347Z,7.70
2018-12-27T10:41:30.302Z,7.10
2018-12-27T10:42:30.293Z,7.20
2018-12-27T10:43:30.228Z,7.40
2018-12-27T10:44:30.184Z,7.10
2018-12-27T10:45:30.129Z,7.00
2018-12-27T10:46:30.106Z,6.70
2018-12-27T10:47:30.105Z,7.10
2018-12-27T10:48:30.027Z,7.40
2018-12-27T10:49:29.993Z,7.10
2018-12-27T10:50:29.950Z,7.40
2018-12-27T10:51:29.894Z,7.10
2018-12-27T10:52:29.876Z,7.60
2018-12-27T10:53:29.841Z,7.30
2018-12-27T10:54:29.803Z,7.10
2018-12-27T10:55:29.717Z,7.30
2018-12-27T10:56:29.689Z,7.30
2018-12-27T10:57:29.679Z,7.40
2018-12-27T10:58:29.600Z,6.70
2018-12-27T10:59:29.581Z,7.20
2018-12-27T11:00:29.531Z,7.40
2018-12-27T11:01:29.491Z,7.30
2018-12-27T11:02:29.433Z,6.70
2018-12-27T11:03:30.742Z,7.00
2018-12-27T11:04:29.334Z,6.60
2018-12-27T11:05:29.319Z,7.00
2018-12-27T11:06:29.380Z,7.60
2018-12-27T11:07:29.210Z,7.70
2018-12-27T11:08:29.216Z,7.10
2018-12-27T11:09:29.348Z,6.70
2018-12-27T11:10:29.102Z,7.50
2018-12-27T11:11:29.081Z,7.10
2018-12-27T11:12:28.996Z,6.80
2018-12-27T11:13:29.020Z,6.70
2018-12-27T11:14:28.938Z,6.80
2018-12-27T11:15:28.868Z,6.50
2018-12-27T11:16:28.847Z,6.60
2018-12-27T11:17:28.831Z,6.40
2018-12-27T11:18:30.274Z,6.60
2018-12-27T11:19:28.749Z,6.30
2018-12-27T11:20:28.662Z,6.50
2018-12-27T11:21:28.619Z,7.00
2018-12-27T11:22:28.573Z,6.20
2018-12-27T11:23:28.575Z,6.60
2018-12-27T11:24:28.538Z,6.70
2018-12-27T11:25:28.504Z,6.40
2018-12-27T11:26:28.404Z,6.10
2018-12-27T11:27:28.372Z,6.30
2018-12-27T11:28:28.324Z,6.40
2018-12-27T11:29:28.334Z,6.70
2018-12-27T11:30:28.250Z,6.60
2018-12-27T11:31:28.217Z,5.80
2018-12-27T11:32:28.175Z,5.90
2018-12-27T11:33:28.132Z,6.00
2018-12-27T11:34:28.103Z,6.20
2018-12-27T11:35:28.065Z,6.80
2018-12-27T11:36:28.003Z,6.60
2018-12-27T11:37:27.958Z,6.00
2018-12-27T11:38:27.913Z,6.30
2018-12-27T11:39:27.877Z,6.50
2018-12-27T11:40:27.853Z,6.40
2018-12-27T11:41:27.787Z,6.10
2018-12-27T11:42:27.780Z,6.60
2018-12-27T11:43:27.725Z,6.50
2018-12-27T11:44:27.709Z,6.30
2018-12-27T11:45:27.654Z,6.60
2018-12-27T11:46:27.581Z,6.60
2018-12-27T11:47:27.563Z,6.30
2018-12-27T11:48:27.493Z,6.70
2018-12-27T11:49:27.459Z,6.90
2018-12-27T11:50:27.417Z,6.90
2018-12-27T11:51:27.401Z,6.40
2018-12-27T11:52:27.356Z,7.30
2018-12-27T11:53:27.310Z,6.80
2018-12-27T11:54:27.382Z,7.10
2018-12-27T11:55:27.258Z,7.20
2018-12-27T11:56:27.204Z,6.90
2018-12-27T11:57:27.132Z,6.30
2018-12-27T11:58:27.177Z,6.70
2018-12-27T11:59:27.040Z,6.50
2018-12-27T12:00:27.045Z,6.60
2018-12-27T12:01:27.009Z,6.30
2018-12-27T12:02:31.127Z,6.50
2018-12-27T12:03:26.873Z,7.00
2018-12-27T12:04:26.912Z,6.80
2018-12-27T12:07:13.253Z,6.50
2018-12-27T12:08:07.007Z,6.80
2018-12-27T12:09:22.514Z,6.70
2018-12-27T12:10:06.866Z,6.50
2018-12-27T12:11:05.900Z,6.30
2018-12-27T12:12:09.148Z,6.50
2018-12-27T12:13:07.138Z,6.20
2018-12-27T12:16:44.301Z,6.30
2018-12-27T12:17:37.674Z,6.20
2018-12-27T12:18:44.433Z,6.30
2018-12-27T12:19:41.835Z,6.40
2018-12-27T12:20:37.504Z,6.30
2018-12-27T12:21:37.533Z,5.90
2018-12-27T12:22:37.470Z,6.00
2018-12-27T12:25:01.971Z,6.10
2018-12-27T12:26:37.248Z,6.50
2018-12-27T12:27:37.212Z,6.30
2018-12-27T12:28:37.196Z,6.20
2018-12-27T12:29:37.109Z,6.60
2018-12-27T12:30:37.076Z,6.20
2018-12-27T12:31:37.053Z,6.40
2018-12-27T12:32:37.026Z,6.30
2018-12-27T12:33:37.013Z,6.00
2018-12-27T12:34:36.930Z,6.10
2018-12-27T12:35:36.906Z,6.20
2018-12-27T12:36:36.840Z,5.70
2018-12-27T12:37:53.077Z,6.40
2018-12-27T12:38:36.777Z,6.30
2018-12-27T12:39:36.704Z,6.30
2018-12-27T12:40:36.746Z,6.20
2018-12-27T12:41:36.681Z,6.30
2018-12-27T12:42:37.554Z,6.20
2018-12-27T12:43:38.137Z,6.00
2018-12-27T12:44:36.495Z,5.90
2018-12-27T12:45:36.541Z,6.20
2018-12-27T12:46:36.488Z,6.40
2018-12-27T12:47:36.403Z,6.40
2018-12-27T12:48:36.354Z,6.00
2018-12-27T12:49:36.304Z,6.00
2018-12-27T12:50:36.254Z,6.80
2018-12-27T12:51:36.195Z,6.20
2018-12-27T12:52:36.181Z,6.10
2018-12-27T12:53:36.122Z,6.20
2018-12-27T12:54:36.100Z,6.20
2018-12-27T12:55:36.043Z,5.80
2018-12-27T12:56:36.836Z,6.40
2018-12-27T12:57:35.985Z,6.50
2018-12-27T12:58:35.924Z,6.20
2018-12-27T12:59:35.890Z,6.10
2018-12-27T13:00:35.846Z,6.50
2018-12-27T13:01:35.777Z,6.20
2018-12-27T13:02:35.751Z,6.10
2018-12-27T13:03:35.701Z,6.10
2018-12-27T13:04:35.655Z,6.70
2018-12-27T13:05:35.640Z,6.10
2018-12-27T13:06:35.579Z,6.50
2018-12-27T13:07:35.755Z,6.80
2018-12-27T13:08:35.526Z,6.10
2018-12-27T13:09:35.440Z,6.10
2018-12-27T13:10:35.428Z,6.50
2018-12-27T13:16:44.931Z,6.60
2018-12-27T13:17:43.144Z,6.10
2018-12-27T13:18:47.310Z,6.20
2018-12-27T13:19:43.032Z,6.40